Time;durP1;ratioP1;P1;durP2;ratioP2;P2;SDS_P1;SDS_P2;PMS_P1;PMS_P2;Temp;Humidity;BMP_temperature;BMP_pressure;BME280_temperature;BME280_humidity;BME280_pressure;Samples;Min_cycle;Max_cycle;Signal;HPM_P1;HPM_P2
2022/10/28 00:01:43;;;;;;;1.57;0.90;;;18.20;98.20;;;;;;4999283;28;20486;-76
2022/10/28 00:04:10;;;;;;;1.60;0.90;;;18.20;98.20;;;;;;4999109;28;20499;-75
2022/10/28 00:06:37;;;;;;;1.50;0.90;;;18.20;98.20;;;;;;4993010;28;21049;-76
2022/10/28 00:09:05;;;;;;;1.87;1.23;;;18.20;98.20;;;;;;5019312;28;21114;-75
2022/10/28 00:11:34;;;;;;;1.50;1.00;;;18.20;98.20;;;;;;4998943;28;20498;-75
2022/10/28 00:14:03;;;;;;;1.57;0.90;;;18.30;98.20;;;;;;4999898;28;21187;-77
2022/10/28 00:16:32;;;;;;;1.57;0.90;;;18.30;98.20;;;;;;4992139;28;20484;-76
2022/10/28 00:19:01;;;;;;;1.50;0.90;;;18.30;98.20;;;;;;5008759;28;20539;-75
2022/10/28 00:21:30;;;;;;;1.50;0.90;;;18.30;98.20;;;;;;5000603;28;20480;-75
2022/10/28 00:23:58;;;;;;;1.53;0.90;;;18.30;98.20;;;;;;5000464;28;20496;-75
2022/10/28 00:26:29;;;;;;;1.50;0.90;;;18.30;98.20;;;;;;4991027;28;20479;-75
2022/10/28 00:28:57;;;;;;;1.57;0.90;;;18.40;98.20;;;;;;5012781;28;20895;-75
2022/10/28 00:31:26;;;;;;;1.57;0.90;;;18.40;98.20;;;;;;4999252;28;20487;-75
2022/10/28 00:33:54;;;;;;;1.57;0.90;;;18.40;98.20;;;;;;5009186;28;20484;-75
2022/10/28 00:36:23;;;;;;;1.57;0.90;;;18.40;98.20;;;;;;4996513;28;20511;-75
2022/10/28 00:38:51;;;;;;;1.53;0.90;;;18.40;98.20;;;;;;5008585;28;20465;-75
2022/10/28 00:41:21;;;;;;;1.60;1.00;;;18.40;98.20;;;;;;4999114;28;20479;-75
2022/10/28 00:43:52;;;;;;;1.60;1.00;;;18.40;98.20;;;;;;5008644;28;20557;-76
2022/10/28 00:46:27;;;;;;;1.57;1.00;;;18.40;98.20;;;;;;4999039;28;20479;-77
2022/10/28 00:48:59;;;;;;;1.53;1.00;;;18.40;98.20;;;;;;5001549;28;21095;-75
2022/10/28 00:51:27;;;;;;;1.60;1.20;;;18.50;98.20;;;;;;4990088;28;20533;-76
2022/10/28 00:53:55;;;;;;;1.53;0.90;;;18.50;98.20;;;;;;5020212;28;20850;-76
2022/10/28 00:56:24;;;;;;;1.53;0.90;;;18.50;98.20;;;;;;4998192;28;20912;-76
2022/10/28 00:58:56;;;;;;;1.50;0.90;;;18.50;98.20;;;;;;5007583;28;20539;-76
2022/10/28 01:01:23;;;;;;;1.50;0.90;;;18.50;98.20;;;;;;4998228;28;20907;-75
2022/10/28 01:03:51;;;;;;;1.60;1.00;;;18.50;98.20;;;;;;5000046;28;20496;-75
2022/10/28 01:06:18;;;;;;;1.50;0.90;;;18.50;98.20;;;;;;4987465;28;20475;-75
2022/10/28 01:08:45;;;;;;;1.57;0.90;;;18.60;98.20;;;;;;5021221;28;20464;-75
2022/10/28 01:11:45;;;;;;;1.60;1.00;;;18.60;98.20;;;;;;4998595;28;21192;-75
2022/10/28 01:14:21;;;;;;;1.57;0.90;;;18.60;98.20;;;;;;4998229;28;20890;-75
2022/10/28 01:17:05;;;;;;;1.57;0.90;;;18.70;98.20;;;;;;4995734;28;20530;-76
2022/10/28 01:20:07;;;;;;;1.53;1.00;;;18.70;98.20;;;;;;5015226;28;20452;-75
2022/10/28 01:22:42;;;;;;;1.50;0.90;;;18.70;98.20;;;;;;5006535;28;20573;-76
2022/10/28 01:25:33;;;;;;;1.57;0.93;;;18.80;98.20;;;;;;5009814;28;20496;-76
2022/10/28 01:28:12;;;;;;;1.50;0.90;;;18.80;98.20;;;;;;4990986;28;20482;-76
2022/10/28 01:31:17;;;;;;;1.60;1.00;;;18.80;98.20;;;;;;5008507;28;20487;-77
2022/10/28 01:33:52;;;;;;;1.53;0.90;;;18.80;98.20;;;;;;4941137;28;20470;-78
2022/10/28 01:36:23;;;;;;;1.60;1.17;;;18.80;98.20;;;;;;4966981;28;20621;-76
2022/10/28 01:38:55;;;;;;;1.50;0.90;;;18.80;98.20;;;;;;5013988;28;20702;-77
2022/10/28 01:41:30;;;;;;;1.53;0.90;;;18.80;98.20;;;;;;5000578;28;20512;-78
2022/10/28 01:44:04;;;;;;;1.60;1.00;;;18.90;98.20;;;;;;5001889;28;20575;-77
2022/10/28 01:46:37;;;;;;;1.53;0.90;;;18.90;98.20;;;;;;4983923;28;20534;-77
2022/10/28 01:49:14;;;;;;;1.50;0.90;;;18.90;98.20;;;;;;5008193;28;20985;-77
2022/10/28 01:51:44;;;;;;;1.57;0.90;;;18.80;98.20;;;;;;4997444;28;20486;-75
2022/10/28 01:54:16;;;;;;;1.53;0.90;;;18.90;98.20;;;;;;4996787;28;20560;-77
2022/10/28 01:56:45;;;;;;;1.60;1.00;;;18.90;98.20;;;;;;4991893;28;20562;-75
2022/10/28 01:59:16;;;;;;;1.53;0.90;;;18.90;98.20;;;;;;5010755;28;20466;-77
2022/10/28 02:01:43;;;;;;;1.50;0.90;;;18.90;98.20;;;;;;4997148;28;20869;-77
2022/10/28 02:04:11;;;;;;;1.50;0.90;;;18.90;98.20;;;;;;5007427;28;20496;-76
2022/10/28 02:06:40;;;;;;;1.53;0.90;;;18.90;98.20;;;;;;4997195;28;20479;-77
2022/10/28 02:09:20;;;;;;;1.60;1.20;;;18.90;98.20;;;;;;4996698;28;20469;-78
2022/10/28 02:12:03;;;;;;;1.53;1.00;;;18.90;98.20;;;;;;4993318;28;20483;-76
2022/10/28 02:14:45;;;;;;;1.53;0.93;;;18.90;98.20;;;;;;5013662;28;21000;-78
2022/10/28 02:17:21;;;;;;;1.57;0.90;;;18.90;98.20;;;;;;4997220;28;20791;-75
2022/10/28 02:19:54;;;;;;;1.50;0.90;;;18.80;98.20;;;;;;4995044;28;20861;-77
2022/10/28 02:22:24;;;;;;;1.53;1.00;;;18.80;98.20;;;;;;5003790;28;20853;-75
2022/10/28 02:25:00;;;;;;;1.53;0.90;;;18.70;98.20;;;;;;5009726;28;20491;-75
2022/10/28 02:27:34;;;;;;;1.53;0.90;;;18.70;98.20;;;;;;4995801;28;20931;-75
2022/10/28 02:30:06;;;;;;;1.57;0.90;;;18.60;98.20;;;;;;5006630;28;20456;-76
2022/10/28 02:32:38;;;;;;;1.80;1.57;;;18.60;98.20;;;;;;4990116;28;20481;-75
2022/10/28 02:35:14;;;;;;;1.53;0.90;;;18.50;98.20;;;;;;5006851;28;20561;-75
2022/10/28 02:37:43;;;;;;;1.53;0.90;;;18.50;98.20;;;;;;4996174;28;20574;-75
2022/10/28 02:40:18;;;;;;;1.60;1.20;;;18.40;98.20;;;;;;5005299;28;20551;-75
2022/10/28 02:42:49;;;;;;;1.53;0.90;;;18.40;98.20;;;;;;4996003;28;20544;-76
2022/10/28 02:45:21;;;;;;;1.50;0.90;;;18.30;98.20;;;;;;5004738;28;20551;-75
2022/10/28 02:47:52;;;;;;;1.57;1.00;;;18.30;98.20;;;;;;4994201;28;21020;-75
2022/10/28 02:50:25;;;;;;;1.50;1.00;;;18.20;98.20;;;;;;5007273;28;20535;-74
2022/10/28 02:52:56;;;;;;;1.57;0.90;;;18.20;98.20;;;;;;4995900;28;20476;-75
2022/10/28 02:55:25;;;;;;;1.50;0.90;;;18.20;98.20;;;;;;4997143;28;20711;-75
2022/10/28 02:57:52;;;;;;;1.60;1.00;;;18.10;98.20;;;;;;5002325;28;20483;-75
2022/10/28 03:00:23;;;;;;;1.57;1.00;;;18.10;98.20;;;;;;5007917;28;20470;-74
2022/10/28 03:02:50;;;;;;;1.57;1.00;;;18.00;98.20;;;;;;4995521;28;20518;-75
2022/10/28 03:05:17;;;;;;;1.57;1.00;;;18.00;98.20;;;;;;4989451;28;20497;-74
2022/10/28 03:07:46;;;;;;;1.60;1.00;;;18.00;98.20;;;;;;5007359;28;20570;-74
2022/10/28 03:10:13;;;;;;;1.60;0.90;;;18.00;98.20;;;;;;5009121;28;20467;-75
2022/10/28 03:12:40;;;;;;;1.60;0.90;;;18.00;98.20;;;;;;4996102;28;20515;-75
2022/10/28 03:15:08;;;;;;;1.53;0.90;;;18.00;98.20;;;;;;4989361;28;20528;-75
2022/10/28 03:17:35;;;;;;;1.57;0.90;;;18.00;98.20;;;;;;5005851;28;20475;-76
2022/10/28 03:20:02;;;;;;;1.53;1.00;;;18.10;98.20;;;;;;4992552;28;20567;-75
2022/10/28 03:22:29;;;;;;;1.57;0.90;;;18.10;98.20;;;;;;4997372;28;20498;-74
2022/10/28 03:24:57;;;;;;;1.53;0.90;;;18.20;98.20;;;;;;4993998;28;20920;-75
2022/10/28 03:27:24;;;;;;;1.60;0.90;;;18.30;98.20;;;;;;5001808;28;20490;-75
2022/10/28 03:29:51;;;;;;;1.53;0.90;;;18.30;98.20;;;;;;5012423;28;20460;-75
2022/10/28 03:32:18;;;;;;;1.60;1.00;;;18.30;98.20;;;;;;5000115;28;20571;-75
2022/10/28 03:34:46;;;;;;;1.60;1.10;;;18.30;98.20;;;;;;5011127;28;20486;-76
2022/10/28 03:37:13;;;;;;;1.60;1.00;;;18.20;98.20;;;;;;5009728;28;20481;-75
2022/10/28 03:39:40;;;;;;;2.17;1.27;;;18.20;98.20;;;;;;5015457;28;20544;-75
2022/10/28 03:42:08;;;;;;;1.57;1.00;;;18.20;98.20;;;;;;5000102;28;20530;-76
2022/10/28 03:44:36;;;;;;;1.53;1.00;;;18.10;98.20;;;;;;5018752;28;20550;-76
2022/10/28 03:47:02;;;;;;;1.60;1.00;;;18.10;98.20;;;;;;4999560;28;20491;-74
2022/10/28 03:49:30;;;;;;;1.53;0.90;;;18.10;98.20;;;;;;5010361;28;20887;-76
2022/10/28 03:51:57;;;;;;;1.53;1.00;;;18.00;98.20;;;;;;4997867;28;20567;-75
2022/10/28 03:54:24;;;;;;;1.60;1.00;;;18.00;98.20;;;;;;5004862;28;20480;-76
2022/10/28 03:56:51;;;;;;;1.53;0.90;;;18.00;98.20;;;;;;4999253;28;20855;-74
2022/10/28 03:59:19;;;;;;;3.17;2.00;;;18.00;98.20;;;;;;5010853;28;20463;-76
2022/10/28 04:01:46;;;;;;;1.50;0.90;;;18.00;98.20;;;;;;4998700;28;20488;-76
2022/10/28 04:04:13;;;;;;;1.57;1.00;;;18.00;98.20;;;;;;5009970;28;20913;-75
2022/10/28 04:06:40;;;;;;;3.30;3.00;;;18.00;98.20;;;;;;4999146;28;20480;-76
2022/10/28 04:09:06;;;;;;;1.50;0.90;;;18.00;98.20;;;;;;4998641;28;20471;-75
2022/10/28 04:11:33;;;;;;;1.50;1.00;;;17.90;98.20;;;;;;4991860;28;20491;-75
2022/10/28 04:14:00;;;;;;;1.50;1.00;;;17.90;98.20;;;;;;5010823;28;20492;-75
2022/10/28 04:16:28;;;;;;;1.60;1.00;;;17.90;98.20;;;;;;4998267;28;20495;-75
2022/10/28 04:18:55;;;;;;;1.53;1.00;;;17.90;98.20;;;;;;5000326;28;20488;-75
2022/10/28 04:21:22;;;;;;;1.53;1.00;;;17.90;98.20;;;;;;4991998;28;20968;-76
2022/10/28 04:23:49;;;;;;;1.60;1.00;;;17.80;98.20;;;;;;5000644;28;20810;-76
2022/10/28 04:26:16;;;;;;;1.60;1.00;;;17.80;98.20;;;;;;4990277;28;20507;-76
2022/10/28 04:28:43;;;;;;;1.53;1.00;;;17.80;98.20;;;;;;5011042;28;20563;-75
2022/10/28 04:31:11;;;;;;;1.60;1.00;;;17.80;98.20;;;;;;4999224;28;20476;-77
2022/10/28 04:33:39;;;;;;;1.60;1.00;;;17.90;98.20;;;;;;5002336;28;21001;-75
2022/10/28 04:36:10;;;;;;;1.60;1.00;;;17.90;98.20;;;;;;4982248;28;20468;-76
2022/10/28 04:38:37;;;;;;;1.53;0.90;;;17.90;98.20;;;;;;5008202;28;20468;-76
2022/10/28 04:41:06;;;;;;;1.53;0.90;;;17.90;98.20;;;;;;4997813;28;20518;-76
2022/10/28 04:43:33;;;;;;;1.60;1.00;;;17.90;98.20;;;;;;5003156;28;20535;-76
2022/10/28 04:46:04;;;;;;;1.60;0.97;;;17.90;98.20;;;;;;4990773;28;20542;-77
2022/10/28 04:48:32;;;;;;;1.60;1.00;;;17.80;98.20;;;;;;5001555;28;20484;-76
2022/10/28 04:51:03;;;;;;;1.60;1.00;;;17.80;98.20;;;;;;4990961;28;20488;-76
2022/10/28 04:53:33;;;;;;;1.53;0.90;;;17.80;98.20;;;;;;5015610;28;20826;-76
2022/10/28 04:56:02;;;;;;;1.53;0.93;;;17.80;98.20;;;;;;4993254;28;20475;-76
2022/10/28 04:58:39;;;;;;;1.60;1.00;;;17.80;98.20;;;;;;4999766;28;20555;-76
2022/10/28 05:01:07;;;;;;;2.27;2.07;;;17.80;98.20;;;;;;4991750;28;20552;-77
2022/10/28 05:03:35;;;;;;;1.53;0.90;;;17.80;98.20;;;;;;5005444;28;20527;-76
2022/10/28 05:06:19;;;;;;;1.57;1.00;;;17.80;98.20;;;;;;4985657;28;20477;-77
2022/10/28 05:08:53;;;;;;;1.57;0.90;;;17.90;98.20;;;;;;4994820;28;20560;-76
2022/10/28 05:11:22;;;;;;;1.60;0.90;;;17.90;98.20;;;;;;4988232;28;20476;-77
2022/10/28 05:14:09;;;;;;;2.67;1.67;;;17.90;98.20;;;;;;4993146;28;20488;-76
2022/10/28 05:16:36;;;;;;;1.60;0.90;;;17.90;98.20;;;;;;4984439;28;20542;-76
2022/10/28 05:19:06;;;;;;;1.60;1.00;;;17.90;98.20;;;;;;4998722;28;20553;-76
2022/10/28 05:21:41;;;;;;;1.57;1.00;;;17.90;98.20;;;;;;4985932;28;20907;-77
2022/10/28 05:24:11;;;;;;;1.60;1.00;;;17.90;98.20;;;;;;5006230;28;20516;-76
2022/10/28 05:26:38;;;;;;;1.60;1.00;;;17.90;98.20;;;;;;4989161;28;20496;-76
2022/10/28 05:29:07;;;;;;;1.60;0.90;;;17.90;98.20;;;;;;4997738;28;20530;-75
2022/10/28 05:31:34;;;;;;;1.60;1.00;;;17.80;98.20;;;;;;4991801;28;20583;-77
2022/10/28 05:34:01;;;;;;;1.53;0.93;;;17.90;98.20;;;;;;5000712;28;21070;-77
2022/10/28 05:36:28;;;;;;;1.57;1.00;;;17.90;98.20;;;;;;4991369;28;20627;-77
2022/10/28 05:38:57;;;;;;;1.50;0.90;;;17.80;98.20;;;;;;4992667;28;20461;-76
2022/10/28 05:41:24;;;;;;;1.60;0.90;;;17.80;98.20;;;;;;4984542;28;20476;-77
2022/10/28 05:43:51;;;;;;;1.53;0.90;;;17.80;98.20;;;;;;5010212;28;20580;-76
2022/10/28 05:46:18;;;;;;;1.53;0.90;;;17.80;98.20;;;;;;4984955;28;20589;-77
2022/10/28 05:48:45;;;;;;;1.57;1.00;;;17.70;98.20;;;;;;5012431;28;20499;-76
2022/10/28 05:51:12;;;;;;;1.50;1.00;;;17.70;98.20;;;;;;4986720;28;20533;-77
2022/10/28 05:53:40;;;;;;;1.57;0.93;;;17.70;98.20;;;;;;5002581;28;20583;-76
2022/10/28 05:56:09;;;;;;;1.57;0.90;;;17.70;98.20;;;;;;4981744;28;20949;-75
2022/10/28 05:58:36;;;;;;;1.93;1.73;;;17.70;98.20;;;;;;4999590;28;20472;-77
2022/10/28 06:01:06;;;;;;;1.70;1.20;;;17.70;98.20;;;;;;4990205;28;20764;-76
2022/10/28 06:03:33;;;;;;;1.60;1.00;;;17.70;98.20;;;;;;4990149;28;20481;-77
2022/10/28 06:06:00;;;;;;;1.57;1.00;;;17.70;98.20;;;;;;4982402;28;20939;-76
2022/10/28 06:08:27;;;;;;;1.57;0.93;;;17.70;98.20;;;;;;5002522;28;20472;-77
2022/10/28 06:10:55;;;;;;;1.60;1.20;;;17.70;98.20;;;;;;4979440;28;20499;-76
2022/10/28 06:13:24;;;;;;;1.50;0.90;;;17.70;98.20;;;;;;4996218;28;20471;-75
2022/10/28 06:15:52;;;;;;;1.53;0.90;;;17.70;98.20;;;;;;4981493;28;21042;-75
2022/10/28 06:18:19;;;;;;;1.57;1.00;;;17.70;98.20;;;;;;5009007;28;20468;-75
2022/10/28 06:20:52;;;;;;;1.53;0.90;;;17.70;98.20;;;;;;4995879;28;20946;-76
2022/10/28 06:23:19;;;;;;;1.60;0.90;;;17.70;98.20;;;;;;4979213;28;20586;-74
2022/10/28 06:25:46;;;;;;;1.60;1.00;;;17.70;98.20;;;;;;4996183;28;20481;-76
2022/10/28 06:28:13;;;;;;;1.60;1.10;;;17.80;98.20;;;;;;4989444;28;20468;-75
2022/10/28 06:30:41;;;;;;;1.60;1.00;;;17.80;98.20;;;;;;5003541;28;20535;-77
2022/10/28 06:33:08;;;;;;;1.57;0.90;;;17.90;98.20;;;;;;4985108;28;21061;-77
2022/10/28 06:35:35;;;;;;;1.50;1.00;;;17.90;98.20;;;;;;4998643;28;20459;-76
2022/10/28 06:38:02;;;;;;;1.50;0.90;;;18.00;98.20;;;;;;4985952;28;20492;-76
2022/10/28 06:40:29;;;;;;;1.60;1.00;;;18.00;98.20;;;;;;5000929;28;20558;-76
2022/10/28 06:43:01;;;;;;;1.60;1.00;;;18.00;98.20;;;;;;4985026;28;20480;-77
2022/10/28 06:45:28;;;;;;;1.60;1.00;;;18.00;98.20;;;;;;5005614;28;20491;-78
2022/10/28 06:47:57;;;;;;;1.57;0.90;;;18.00;98.20;;;;;;4995782;28;21037;-75
2022/10/28 06:50:25;;;;;;;1.53;0.97;;;18.00;98.20;;;;;;4999413;28;20472;-76
2022/10/28 06:52:52;;;;;;;1.60;1.00;;;18.00;98.20;;;;;;4992631;28;20567;-75
2022/10/28 06:55:47;;;;;;;;;;;;;;;;;;;;;
2022/10/28 06:58:14;;;;;;;1.53;0.90;;;18.00;98.20;;;;;;4991232;28;20481;-77
2022/10/28 07:00:41;;;;;;;1.60;0.90;;;18.10;98.20;;;;;;4994272;28;20468;-76
2022/10/28 07:03:11;;;;;;;1.53;0.90;;;18.10;98.20;;;;;;4995339;28;20483;-76
2022/10/28 07:05:38;;;;;;;1.50;1.00;;;18.20;98.20;;;;;;5010385;28;20995;-76
2022/10/28 07:08:06;;;;;;;1.60;1.10;;;18.20;98.20;;;;;;4998388;28;20908;-76
2022/10/28 07:10:33;;;;;;;1.50;0.90;;;18.20;98.20;;;;;;4992526;28;20476;-76
2022/10/28 07:13:00;;;;;;;1.50;1.00;;;18.30;98.20;;;;;;5005206;28;20840;-74
2022/10/28 07:15:32;;;;;;;1.53;0.90;;;18.20;98.20;;;;;;4999789;28;20531;-76
2022/10/28 07:18:00;;;;;;;1.57;0.90;;;18.30;98.20;;;;;;5015313;28;21043;-77
2022/10/28 07:20:47;;;;;;;1.57;0.90;;;18.30;98.20;;;;;;4998196;28;20473;-77
2022/10/28 07:23:34;;;;;;;1.60;1.00;;;18.30;98.20;;;;;;4985637;28;20511;-75
2022/10/28 07:26:27;;;;;;;1.57;0.90;;;18.30;98.20;;;;;;4996401;28;20491;-75
2022/10/28 07:28:56;;;;;;;1.60;1.20;;;18.40;98.20;;;;;;5015112;28;20466;-76
2022/10/28 07:31:44;;;;;;;1.53;0.90;;;18.50;98.20;;;;;;4999771;28;20577;-76
2022/10/28 07:34:22;;;;;;;1.53;1.00;;;18.60;98.20;;;;;;5005026;28;20489;-76
2022/10/28 07:36:58;;;;;;;1.60;1.10;;;18.70;98.20;;;;;;4999022;28;20582;-76
2022/10/28 07:39:29;;;;;;;1.57;0.90;;;18.70;98.20;;;;;;5011809;28;21046;-77
2022/10/28 07:42:08;;;;;;;1.50;0.90;;;18.80;98.20;;;;;;4995648;28;20535;-75
2022/10/28 07:44:42;;;;;;;1.53;0.90;;;18.90;98.20;;;;;;5010873;28;20523;-76
2022/10/28 07:47:24;;;;;;;1.57;0.90;;;18.90;98.20;;;;;;4998986;28;20506;-75
2022/10/28 07:49:53;;;;;;;1.57;0.90;;;18.90;98.20;;;;;;5011340;28;20457;-76
2022/10/28 07:52:34;;;;;;;1.60;1.00;;;18.90;98.20;;;;;;4991478;28;20485;-77
2022/10/28 07:57:43;;;;;;;1.60;1.10;;;19.00;98.20;;;;;;4991954;28;20758;-77
2022/10/28 08:00:24;;;;;;;1.57;0.90;;;19.10;98.20;;;;;;4997213;28;20552;-76
2022/10/28 08:03:32;;;;;;;1.70;1.20;;;19.20;98.20;;;;;;4998242;28;20472;-75
2022/10/28 08:06:33;;;;;;;4.33;4.03;;;19.30;98.20;;;;;;4986003;28;20485;-77
2022/10/28 08:09:04;;;;;;;1.57;0.93;;;19.50;98.20;;;;;;4974993;28;20478;-76
2022/10/28 08:11:31;;;;;;;1.60;0.90;;;19.60;98.20;;;;;;4993229;28;20491;-76
2022/10/28 08:13:59;;;;;;;1.60;1.00;;;19.70;98.20;;;;;;5014221;23;21025;-77
2022/10/28 08:16:27;;;;;;;1.53;0.90;;;19.80;98.20;;;;;;4965730;28;20547;-79
2022/10/28 08:18:55;;;;;;;1.60;1.13;;;19.80;98.20;;;;;;4989963;28;20469;-76
2022/10/28 08:21:23;;;;;;;1.60;0.90;;;19.80;98.20;;;;;;4987599;28;20669;-77
2022/10/28 08:23:50;;;;;;;1.57;0.90;;;19.80;98.20;;;;;;5002717;28;20493;-79
2022/10/28 08:26:19;;;;;;;1.60;1.00;;;19.80;98.20;;;;;;4962626;28;20519;-80
2022/10/28 08:28:46;;;;;;;1.60;0.97;;;19.80;98.20;;;;;;4982271;28;20727;-78
2022/10/28 08:31:14;;;;;;;1.60;1.10;;;19.80;98.20;;;;;;4964376;28;20485;-80
2022/10/28 08:33:44;;;;;;;1.50;0.90;;;19.80;98.20;;;;;;4983020;28;20490;-79
2022/10/28 08:36:13;;;;;;;1.60;1.10;;;19.80;98.20;;;;;;4964155;28;20492;-78
2022/10/28 08:38:43;;;;;;;1.70;1.33;;;19.80;98.20;;;;;;4983771;28;20470;-78
2022/10/28 08:41:24;;;;;;;1.60;0.90;;;19.80;98.20;;;;;;4962507;28;21121;-78
2022/10/28 08:44:07;;;;;;;1.60;0.90;;;19.80;98.20;;;;;;4981915;28;20481;-79
2022/10/28 08:46:52;;;;;;;1.60;0.90;;;19.80;98.20;;;;;;4966862;28;20481;-80
2022/10/28 08:49:22;;;;;;;1.60;1.10;;;19.80;98.20;;;;;;4979651;28;20473;-79
2022/10/28 08:51:55;;;;;;;1.60;0.90;;;19.90;98.20;;;;;;4960208;28;20485;-78
2022/10/28 08:54:27;;;;;;;1.50;0.90;;;19.90;98.20;;;;;;4970956;28;20478;-77
2022/10/28 08:56:58;;;;;;;1.57;0.90;;;19.90;98.20;;;;;;4959730;28;20485;-78
2022/10/28 08:59:31;;;;;;;1.60;0.90;;;19.90;98.20;;;;;;4967909;28;20465;-78
2022/10/28 09:02:00;;;;;;;1.50;0.90;;;19.90;98.20;;;;;;4968400;28;20972;-75
2022/10/28 09:04:37;;;;;;;2.80;2.50;;;20.10;98.20;;;;;;4972170;28;21017;-78
2022/10/28 09:07:04;;;;;;;1.60;1.00;;;20.20;98.20;;;;;;4968649;28;20583;-78
2022/10/28 09:09:32;;;;;;;1.60;1.10;;;20.40;98.20;;;;;;4973780;28;20823;-78
2022/10/28 09:12:17;;;;;;;1.60;1.10;;;20.60;98.20;;;;;;4968631;28;20499;-78
2022/10/28 09:15:03;;;;;;;1.60;0.90;;;20.80;98.20;;;;;;4974139;28;20522;-80
2022/10/28 09:17:39;;;;;;;1.60;0.90;;;20.90;98.20;;;;;;4958956;28;20486;-79
2022/10/28 09:20:17;;;;;;;1.57;0.90;;;21.10;98.20;;;;;;4966888;28;20497;-77
2022/10/28 09:22:54;;;;;;;1.60;0.90;;;21.20;98.20;;;;;;4974972;28;20477;-78
2022/10/28 09:25:26;;;;;;;1.60;1.00;;;21.30;98.20;;;;;;4971483;28;20493;-81
2022/10/28 09:28:09;;;;;;;1.60;0.90;;;21.40;98.20;;;;;;4974990;28;21154;-80
2022/10/28 09:30:48;;;;;;;1.60;0.90;;;21.50;98.20;;;;;;4968465;28;20541;-80
2022/10/28 09:33:40;;;;;;;1.57;0.90;;;21.60;98.20;;;;;;4960353;28;20484;-78
2022/10/28 09:36:14;;;;;;;1.60;0.90;;;21.70;98.20;;;;;;4962155;28;20428;-80
2022/10/28 09:38:42;;;;;;;1.60;0.90;;;21.90;98.20;;;;;;4982690;28;20470;-79
2022/10/28 09:41:16;;;;;;;2.10;1.67;;;22.00;98.20;;;;;;4957393;28;20478;-79
2022/10/28 09:43:49;;;;;;;1.60;1.10;;;22.10;98.00;;;;;;4969758;28;20544;-80
2022/10/28 09:46:18;;;;;;;1.60;0.90;;;22.20;98.20;;;;;;4963068;28;20579;-78
2022/10/28 09:48:48;;;;;;;1.57;0.90;;;22.30;98.10;;;;;;4980208;28;20498;-81
2022/10/28 09:51:26;;;;;;;1.60;0.93;;;22.50;97.30;;;;;;4962970;28;20481;-79
2022/10/28 09:53:56;;;;;;;1.60;0.90;;;22.50;96.70;;;;;;4979667;28;20578;-77
2022/10/28 09:56:23;;;;;;;1.60;1.20;;;22.70;97.40;;;;;;4961364;28;20523;-76
2022/10/28 09:58:53;;;;;;;1.57;0.90;;;22.90;96.10;;;;;;4979956;28;20488;-76
2022/10/28 10:01:21;;;;;;;1.60;1.00;;;23.10;95.80;;;;;;4958999;28;20559;-75
2022/10/28 10:03:49;;;;;;;1.60;0.90;;;23.20;94.40;;;;;;4978763;28;20496;-76
2022/10/28 10:06:20;;;;;;;1.70;1.30;;;23.20;94.20;;;;;;4959212;28;20509;-74
2022/10/28 10:08:47;;;;;;;1.53;0.90;;;23.30;94.40;;;;;;4968259;28;20501;-75
2022/10/28 10:11:22;;;;;;;1.53;0.90;;;23.40;93.80;;;;;;4961265;28;20579;-76
2022/10/28 10:13:52;;;;;;;1.60;0.90;;;23.30;94.40;;;;;;4977042;28;20959;-76
2022/10/28 10:16:26;;;;;;;1.50;0.90;;;23.20;94.20;;;;;;4957722;28;20482;-75
2022/10/28 10:18:57;;;;;;;1.50;0.90;;;23.00;93.90;;;;;;4967543;28;20470;-75
2022/10/28 10:21:42;;;;;;;1.60;1.00;;;22.90;94.10;;;;;;4961216;28;20568;-74
2022/10/28 10:26:38;;;;;;;1.50;0.90;;;22.80;95.40;;;;;;4984149;28;20484;-76
2022/10/28 10:29:13;;;;;;;1.60;0.90;;;22.80;95.90;;;;;;4996619;28;20467;-75
2022/10/28 10:31:40;;;;;;;1.50;0.90;;;22.90;95.40;;;;;;4996029;28;21054;-76
2022/10/28 10:34:20;;;;;;;1.50;0.90;;;23.10;94.80;;;;;;5015886;28;20490;-76
2022/10/28 10:36:50;;;;;;;1.53;0.90;;;23.20;94.40;;;;;;4994972;28;20928;-75
2022/10/28 10:39:25;;;;;;;1.60;0.90;;;23.30;93.90;;;;;;5007527;28;20499;-76
2022/10/28 10:41:55;;;;;;;1.57;0.90;;;23.30;93.90;;;;;;5003433;28;20617;-77
2022/10/28 10:44:32;;;;;;;1.60;1.00;;;23.30;93.80;;;;;;5014248;28;20559;-76
2022/10/28 10:47:23;;;;;;;1.53;0.90;;;23.40;93.70;;;;;;4993955;28;20479;-76
2022/10/28 10:49:51;;;;;;;2.23;2.03;;;23.40;94.10;;;;;;5007280;28;21002;-75
2022/10/28 10:52:30;;;;;;;1.57;0.90;;;23.40;93.90;;;;;;5010071;28;20540;-77
2022/10/28 10:55:04;;;;;;;1.50;0.90;;;23.30;94.40;;;;;;5009418;28;20479;-75
2022/10/28 11:06:54;;;;;;;1.53;0.90;;;24.00;94.00;;;;;;4968293;28;20549;-76
2022/10/28 11:09:31;;;;;;;1.60;1.00;;;24.20;92.20;;;;;;4992113;28;20556;-74
2022/10/28 11:11:58;;;;;;;1.57;0.90;;;24.30;93.00;;;;;;4972283;28;20583;-74
2022/10/28 11:14:28;;;;;;;1.90;1.50;;;24.40;92.30;;;;;;4988671;28;20520;-74
2022/10/28 11:17:00;;;;;;;1.60;1.00;;;24.50;92.30;;;;;;5004056;28;20526;-73
2022/10/28 11:19:30;;;;;;;1.57;0.90;;;24.60;92.60;;;;;;5015436;28;20461;-74
2022/10/28 11:22:12;;;;;;;1.53;0.90;;;24.80;91.80;;;;;;4996018;28;20480;-74
2022/10/28 11:25:02;;;;;;;1.60;1.10;;;24.90;91.60;;;;;;5014403;28;20495;-75
2022/10/28 11:27:40;;;;;;;1.60;0.90;;;25.10;90.30;;;;;;4996281;28;20484;-76
2022/10/28 11:30:13;;;;;;;1.93;1.73;;;25.10;90.40;;;;;;5001413;28;20501;-76
2022/10/28 11:32:56;;;;;;;1.57;0.90;;;25.20;90.20;;;;;;5028594;28;20478;-75
2022/10/28 11:35:39;;;;;;;2.00;1.40;;;25.20;90.90;;;;;;5026047;28;20574;-76
2022/10/28 11:38:24;;;;;;;1.60;1.10;;;25.30;89.50;;;;;;4998801;28;20484;-75
2022/10/28 11:41:11;;;;;;;1.53;0.90;;;25.30;90.90;;;;;;4998769;28;20487;-75
2022/10/28 11:43:49;;;;;;;1.70;1.30;;;25.30;89.70;;;;;;5021242;28;20463;-74
2022/10/28 11:46:26;;;;;;;1.53;0.90;;;25.30;89.90;;;;;;5005302;28;20977;-74
2022/10/28 11:49:22;;;;;;;1.80;1.50;;;25.30;90.20;;;;;;5006892;28;20461;-76
2022/10/28 11:51:59;;;;;;;1.57;0.90;;;25.40;90.20;;;;;;4997165;28;20551;-76
2022/10/28 11:54:43;;;;;;;1.53;0.90;;;25.50;88.90;;;;;;5010784;28;20487;-74
2022/10/28 11:57:15;;;;;;;1.57;0.90;;;25.60;88.20;;;;;;5013212;28;20887;-74
2022/10/28 12:00:05;;;;;;;1.53;0.90;;;25.60;89.10;;;;;;5013535;28;20979;-76
2022/10/28 12:02:52;;;;;;;2.23;1.97;;;25.70;89.20;;;;;;4999344;28;20562;-75
2022/10/28 12:05:29;;;;;;;1.60;1.10;;;25.80;89.40;;;;;;5011904;28;20488;-76
2022/10/28 12:08:31;;;;;;;1.57;0.90;;;25.90;87.90;;;;;;5018100;28;21076;-75
2022/10/28 12:11:22;;;;;;;1.60;0.90;;;26.00;87.90;;;;;;5000211;28;20856;-76
2022/10/28 12:14:01;;;;;;;1.57;0.90;;;26.10;88.90;;;;;;5010511;28;20808;-75
2022/10/28 12:16:40;;;;;;;1.60;0.90;;;26.20;87.30;;;;;;5001310;28;20483;-75
2022/10/28 12:19:15;;;;;;;1.70;1.20;;;26.30;86.90;;;;;;5007320;28;20552;-75
2022/10/28 12:21:57;;;;;;;1.57;0.90;;;26.30;88.20;;;;;;5004710;28;20591;-76
2022/10/28 12:24:25;;;;;;;1.57;0.90;;;26.40;86.90;;;;;;5024180;22;21032;-76
2022/10/28 12:27:00;;;;;;;3.20;2.50;;;26.50;87.30;;;;;;5012348;28;20889;-76
2022/10/28 12:29:32;;;;;;;1.60;0.90;;;26.50;85.40;;;;;;5022297;28;21008;-75
2022/10/28 12:32:05;;;;;;;1.57;0.87;;;26.50;84.80;;;;;;5011553;28;20480;-75
2022/10/28 12:37:39;;;;;;;1.60;0.90;;;26.50;84.80;;;;;;5007611;28;20892;-75
2022/10/28 12:40:20;;;;;;;1.60;1.00;;;26.40;85.50;;;;;;5011059;28;20448;-75
2022/10/28 12:46:01;;;;;;;1.70;1.10;;;26.30;84.80;;;;;;5019552;28;20487;-75
2022/10/28 12:48:45;;;;;;;;;;;;;;;;;;;;;
2022/10/28 12:51:29;;;;;;;9.90;8.77;;;26.20;85.00;;;;;;5005447;28;20474;-75
2022/10/28 12:54:02;;;;;;;1.60;1.03;;;26.10;84.70;;;;;;5010924;28;20980;-74
2022/10/28 12:56:36;;;;;;;1.57;0.87;;;26.10;85.20;;;;;;4994629;28;20468;-76
2022/10/28 12:59:12;;;;;;;1.57;0.90;;;26.00;84.70;;;;;;5004017;28;20469;-75
2022/10/28 13:01:39;;;;;;;1.53;0.90;;;26.00;83.90;;;;;;5005754;28;20671;-76
2022/10/28 13:04:06;;;;;;;1.60;0.90;;;26.00;85.60;;;;;;5024639;28;20496;-74
2022/10/28 13:06:52;;;;;;;1.53;0.90;;;25.90;85.30;;;;;;5010537;28;20487;-76
2022/10/28 13:09:40;;;;;;;1.70;1.20;;;25.90;85.50;;;;;;5014137;28;20857;-77
2022/10/28 13:12:45;;;;;;;25.57;3.33;;;25.80;85.40;;;;;;5005407;28;20556;-76
2022/10/28 13:15:51;;;;;;;1.53;0.90;;;25.80;85.80;;;;;;4994279;28;20867;-78
2022/10/28 13:18:41;;;;;;;1.50;0.90;;;25.70;86.90;;;;;;5004058;28;20476;-75
2022/10/28 13:21:21;;;;;;;1.53;0.83;;;25.70;86.70;;;;;;4998312;28;20569;-76
2022/10/28 13:23:54;;;;;;;5.30;3.47;;;25.70;86.70;;;;;;5017468;28;20975;-76
2022/10/28 13:26:26;;;;;;;1.60;1.10;;;25.60;86.90;;;;;;4994039;28;20566;-76
2022/10/28 13:28:56;;;;;;;1.60;1.00;;;25.60;87.10;;;;;;5004923;28;20495;-75
2022/10/28 13:31:23;;;;;;;1.50;0.90;;;25.60;88.00;;;;;;5010673;28;20545;-77
2022/10/28 13:33:59;;;;;;;1.50;0.87;;;25.60;87.90;;;;;;5021137;28;20471;-75
2022/10/28 13:36:29;;;;;;;1.70;1.10;;;25.60;88.00;;;;;;4998528;28;20564;-76
2022/10/28 13:38:59;;;;;;;1.60;1.10;;;25.60;88.40;;;;;;5007072;28;20464;-75